sensor_id;sensor_type;location;lat;lon;timestamp;P1;durP1;ratioP1;P2;durP2;ratioP2
30247;SDS011;17063;50.892;4.702;2023-12-28T00:02:17;3.30;;;1.60;;
30247;SDS011;17063;50.892;4.702;2023-12-28T00:04:44;3.23;;;1.53;;
30247;SDS011;17063;50.892;4.702;2023-12-28T00:07:10;3.47;;;1.70;;
30247;SDS011;17063;50.892;4.702;2023-12-28T00:09:39;3.80;;;1.77;;
30247;SDS011;17063;50.892;4.702;2023-12-28T00:12:05;1.80;;;1.70;;
30247;SDS011;17063;50.892;4.702;2023-12-28T00:14:32;2.30;;;1.37;;
30247;SDS011;17063;50.892;4.702;2023-12-28T00:16:59;4.33;;;1.70;;
30247;SDS011;17063;50.892;4.702;2023-12-28T00:19:26;6.10;;;1.80;;
30247;SDS011;17063;50.892;4.702;2023-12-28T00:21:53;4.83;;;1.47;;
30247;SDS011;17063;50.892;4.702;2023-12-28T00:24:20;3.43;;;1.83;;
30247;SDS011;17063;50.892;4.702;2023-12-28T00:26:48;3.73;;;1.70;;
30247;SDS011;17063;50.892;4.702;2023-12-28T00:29:15;3.20;;;1.70;;
30247;SDS011;17063;50.892;4.702;2023-12-28T00:31:42;3.50;;;1.70;;
30247;SDS011;17063;50.892;4.702;2023-12-28T00:34:09;4.37;;;2.10;;
30247;SDS011;17063;50.892;4.702;2023-12-28T00:36:37;4.60;;;1.77;;
30247;SDS011;17063;50.892;4.702;2023-12-28T00:39:04;2.73;;;1.63;;
30247;SDS011;17063;50.892;4.702;2023-12-28T00:41:31;2.47;;;1.90;;
30247;SDS011;17063;50.892;4.702;2023-12-28T00:43:58;3.33;;;1.63;;
30247;SDS011;17063;50.892;4.702;2023-12-28T00:46:25;3.77;;;1.80;;
30247;SDS011;17063;50.892;4.702;2023-12-28T00:48:51;3.00;;;1.50;;
30247;SDS011;17063;50.892;4.702;2023-12-28T00:51:19;1.77;;;1.60;;
30247;SDS011;17063;50.892;4.702;2023-12-28T00:53:47;2.83;;;1.53;;
30247;SDS011;17063;50.892;4.702;2023-12-28T00:56:15;3.63;;;1.87;;
30247;SDS011;17063;50.892;4.702;2023-12-28T00:58:42;6.63;;;1.93;;
30247;SDS011;17063;50.892;4.702;2023-12-28T01:01:10;4.83;;;1.83;;
30247;SDS011;17063;50.892;4.702;2023-12-28T01:03:38;4.87;;;1.70;;
30247;SDS011;17063;50.892;4.702;2023-12-28T01:06:06;3.87;;;2.00;;
30247;SDS011;17063;50.892;4.702;2023-12-28T01:08:33;2.63;;;1.87;;
30247;SDS011;17063;50.892;4.702;2023-12-28T01:11:02;2.10;;;1.80;;
30247;SDS011;17063;50.892;4.702;2023-12-28T01:13:29;4.37;;;1.73;;
30247;SDS011;17063;50.892;4.702;2023-12-28T01:15:57;4.20;;;1.83;;
30247;SDS011;17063;50.892;4.702;2023-12-28T01:18:25;2.97;;;2.03;;
30247;SDS011;17063;50.892;4.702;2023-12-28T01:20:52;5.87;;;1.90;;
30247;SDS011;17063;50.892;4.702;2023-12-28T01:23:19;5.10;;;1.97;;
30247;SDS011;17063;50.892;4.702;2023-12-28T01:25:46;3.20;;;1.70;;
30247;SDS011;17063;50.892;4.702;2023-12-28T01:28:13;1.50;;;1.40;;
30247;SDS011;17063;50.892;4.702;2023-12-28T01:30:41;2.00;;;1.63;;
30247;SDS011;17063;50.892;4.702;2023-12-28T01:33:08;3.93;;;1.77;;
30247;SDS011;17063;50.892;4.702;2023-12-28T01:35:35;2.73;;;1.53;;
30247;SDS011;17063;50.892;4.702;2023-12-28T01:38:02;3.03;;;1.87;;
30247;SDS011;17063;50.892;4.702;2023-12-28T01:40:30;2.83;;;1.80;;
30247;SDS011;17063;50.892;4.702;2023-12-28T01:42:57;2.43;;;2.00;;
30247;SDS011;17063;50.892;4.702;2023-12-28T01:45:24;2.17;;;1.80;;
30247;SDS011;17063;50.892;4.702;2023-12-28T01:47:52;5.30;;;2.07;;
30247;SDS011;17063;50.892;4.702;2023-12-28T01:50:20;5.40;;;2.03;;
30247;SDS011;17063;50.892;4.702;2023-12-28T01:52:48;2.83;;;1.80;;
30247;SDS011;17063;50.892;4.702;2023-12-28T01:55:15;2.87;;;1.67;;
30247;SDS011;17063;50.892;4.702;2023-12-28T01:57:43;2.20;;;2.00;;
30247;SDS011;17063;50.892;4.702;2023-12-28T02:00:10;4.13;;;2.13;;
30247;SDS011;17063;50.892;4.702;2023-12-28T02:02:42;3.57;;;2.03;;
30247;SDS011;17063;50.892;4.702;2023-12-28T02:05:12;4.90;;;2.07;;
30247;SDS011;17063;50.892;4.702;2023-12-28T02:07:39;5.10;;;1.87;;
30247;SDS011;17063;50.892;4.702;2023-12-28T02:10:06;3.03;;;1.83;;
30247;SDS011;17063;50.892;4.702;2023-12-28T02:12:34;5.07;;;1.87;;
30247;SDS011;17063;50.892;4.702;2023-12-28T02:15:01;3.03;;;1.90;;
30247;SDS011;17063;50.892;4.702;2023-12-28T02:17:30;3.53;;;2.10;;
30247;SDS011;17063;50.892;4.702;2023-12-28T02:20:00;3.47;;;1.73;;
30247;SDS011;17063;50.892;4.702;2023-12-28T02:22:32;2.57;;;1.70;;
30247;SDS011;17063;50.892;4.702;2023-12-28T02:27:27;5.10;;;2.00;;
30247;SDS011;17063;50.892;4.702;2023-12-28T02:29:54;4.13;;;1.97;;
30247;SDS011;17063;50.892;4.702;2023-12-28T02:32:22;4.70;;;1.73;;
30247;SDS011;17063;50.892;4.702;2023-12-28T02:34:52;3.00;;;1.87;;
30247;SDS011;17063;50.892;4.702;2023-12-28T02:37:23;4.60;;;2.07;;
30247;SDS011;17063;50.892;4.702;2023-12-28T02:39:51;5.60;;;2.13;;
30247;SDS011;17063;50.892;4.702;2023-12-28T02:42:18;5.60;;;1.70;;
30247;SDS011;17063;50.892;4.702;2023-12-28T02:44:46;4.23;;;1.97;;
30247;SDS011;17063;50.892;4.702;2023-12-28T02:47:12;4.10;;;1.87;;
30247;SDS011;17063;50.892;4.702;2023-12-28T02:49:40;6.03;;;1.90;;
30247;SDS011;17063;50.892;4.702;2023-12-28T02:52:07;3.83;;;2.07;;
30247;SDS011;17063;50.892;4.702;2023-12-28T02:54:34;5.80;;;1.70;;
30247;SDS011;17063;50.892;4.702;2023-12-28T02:57:01;3.43;;;1.60;;
30247;SDS011;17063;50.892;4.702;2023-12-28T02:59:28;4.33;;;2.03;;
30247;SDS011;17063;50.892;4.702;2023-12-28T03:01:54;3.60;;;1.73;;
30247;SDS011;17063;50.892;4.702;2023-12-28T03:04:21;4.03;;;1.57;;
30247;SDS011;17063;50.892;4.702;2023-12-28T03:06:48;4.00;;;1.90;;
30247;SDS011;17063;50.892;4.702;2023-12-28T03:09:15;4.03;;;1.60;;
30247;SDS011;17063;50.892;4.702;2023-12-28T03:11:42;6.77;;;1.40;;
30247;SDS011;17063;50.892;4.702;2023-12-28T03:14:09;2.80;;;1.67;;
30247;SDS011;17063;50.892;4.702;2023-12-28T03:16:36;5.27;;;1.60;;
30247;SDS011;17063;50.892;4.702;2023-12-28T03:19:03;4.83;;;1.80;;
30247;SDS011;17063;50.892;4.702;2023-12-28T03:21:29;3.33;;;1.60;;
30247;SDS011;17063;50.892;4.702;2023-12-28T03:23:56;4.40;;;1.70;;
30247;SDS011;17063;50.892;4.702;2023-12-28T03:26:23;5.40;;;1.90;;
30247;SDS011;17063;50.892;4.702;2023-12-28T03:28:50;6.50;;;1.70;;
30247;SDS011;17063;50.892;4.702;2023-12-28T03:31:17;3.90;;;1.73;;
30247;SDS011;17063;50.892;4.702;2023-12-28T03:33:44;3.87;;;1.67;;
30247;SDS011;17063;50.892;4.702;2023-12-28T03:36:17;8.67;;;1.87;;
30247;SDS011;17063;50.892;4.702;2023-12-28T03:38:45;6.63;;;1.80;;
30247;SDS011;17063;50.892;4.702;2023-12-28T03:41:18;5.97;;;2.17;;
30247;SDS011;17063;50.892;4.702;2023-12-28T03:43:48;4.93;;;1.50;;
30247;SDS011;17063;50.892;4.702;2023-12-28T03:46:14;7.40;;;1.70;;
30247;SDS011;17063;50.892;4.702;2023-12-28T03:48:41;5.97;;;1.40;;
30247;SDS011;17063;50.892;4.702;2023-12-28T03:51:13;5.67;;;1.57;;
30247;SDS011;17063;50.892;4.702;2023-12-28T03:53:41;5.93;;;1.57;;
30247;SDS011;17063;50.892;4.702;2023-12-28T03:56:17;3.90;;;1.40;;
30247;SDS011;17063;50.892;4.702;2023-12-28T03:58:46;4.77;;;1.23;;
30247;SDS011;17063;50.892;4.702;2023-12-28T04:01:13;6.40;;;1.90;;
30247;SDS011;17063;50.892;4.702;2023-12-28T04:03:40;4.90;;;1.47;;
30247;SDS011;17063;50.892;4.702;2023-12-28T04:06:07;4.93;;;1.50;;
30247;SDS011;17063;50.892;4.702;2023-12-28T04:08:34;6.30;;;1.40;;
30247;SDS011;17063;50.892;4.702;2023-12-28T04:11:00;2.43;;;1.20;;
30247;SDS011;17063;50.892;4.702;2023-12-28T04:13:30;7.57;;;1.50;;
30247;SDS011;17063;50.892;4.702;2023-12-28T04:15:57;13.43;;;2.20;;
30247;SDS011;17063;50.892;4.702;2023-12-28T04:18:24;3.33;;;1.57;;
30247;SDS011;17063;50.892;4.702;2023-12-28T04:20:51;3.57;;;1.40;;
30247;SDS011;17063;50.892;4.702;2023-12-28T04:23:18;3.27;;;1.53;;
30247;SDS011;17063;50.892;4.702;2023-12-28T04:25:45;7.47;;;1.77;;
30247;SDS011;17063;50.892;4.702;2023-12-28T04:28:12;9.50;;;1.80;;
30247;SDS011;17063;50.892;4.702;2023-12-28T04:30:38;3.13;;;1.30;;
30247;SDS011;17063;50.892;4.702;2023-12-28T04:33:06;8.43;;;1.73;;
30247;SDS011;17063;50.892;4.702;2023-12-28T04:35:33;8.87;;;1.70;;
30247;SDS011;17063;50.892;4.702;2023-12-28T04:38:00;7.10;;;1.80;;
30247;SDS011;17063;50.892;4.702;2023-12-28T04:40:26;4.70;;;1.80;;
30247;SDS011;17063;50.892;4.702;2023-12-28T04:42:53;4.40;;;1.50;;
30247;SDS011;17063;50.892;4.702;2023-12-28T04:45:20;8.50;;;2.00;;
30247;SDS011;17063;50.892;4.702;2023-12-28T04:47:49;9.00;;;2.03;;
30247;SDS011;17063;50.892;4.702;2023-12-28T04:50:16;6.40;;;2.00;;
30247;SDS011;17063;50.892;4.702;2023-12-28T04:52:42;10.63;;;1.50;;
30247;SDS011;17063;50.892;4.702;2023-12-28T04:55:09;9.97;;;1.97;;
30247;SDS011;17063;50.892;4.702;2023-12-28T04:57:36;8.77;;;1.80;;
30247;SDS011;17063;50.892;4.702;2023-12-28T05:00:03;6.90;;;1.40;;
30247;SDS011;17063;50.892;4.702;2023-12-28T05:02:31;11.40;;;1.70;;
30247;SDS011;17063;50.892;4.702;2023-12-28T05:04:59;8.87;;;1.93;;
30247;SDS011;17063;50.892;4.702;2023-12-28T05:07:26;10.73;;;2.23;;
30247;SDS011;17063;50.892;4.702;2023-12-28T05:09:53;10.47;;;1.90;;
30247;SDS011;17063;50.892;4.702;2023-12-28T05:12:20;7.97;;;1.60;;
30247;SDS011;17063;50.892;4.702;2023-12-28T05:14:49;9.70;;;1.97;;
30247;SDS011;17063;50.892;4.702;2023-12-28T05:17:15;5.63;;;1.33;;
30247;SDS011;17063;50.892;4.702;2023-12-28T05:19:42;7.23;;;1.50;;
30247;SDS011;17063;50.892;4.702;2023-12-28T05:22:09;8.90;;;1.63;;
30247;SDS011;17063;50.892;4.702;2023-12-28T05:24:37;7.83;;;1.47;;
30247;SDS011;17063;50.892;4.702;2023-12-28T05:27:04;7.63;;;2.07;;
30247;SDS011;17063;50.892;4.702;2023-12-28T05:29:31;12.87;;;1.60;;
30247;SDS011;17063;50.892;4.702;2023-12-28T05:31:58;13.40;;;2.07;;
30247;SDS011;17063;50.892;4.702;2023-12-28T05:34:25;9.17;;;2.73;;
30247;SDS011;17063;50.892;4.702;2023-12-28T05:36:52;11.63;;;2.57;;
30247;SDS011;17063;50.892;4.702;2023-12-28T05:39:18;13.03;;;1.93;;
30247;SDS011;17063;50.892;4.702;2023-12-28T05:41:45;11.10;;;1.73;;
30247;SDS011;17063;50.892;4.702;2023-12-28T05:44:14;5.07;;;1.60;;
30247;SDS011;17063;50.892;4.702;2023-12-28T05:46:41;12.50;;;2.07;;
30247;SDS011;17063;50.892;4.702;2023-12-28T05:49:07;10.50;;;2.20;;
30247;SDS011;17063;50.892;4.702;2023-12-28T05:51:38;9.07;;;1.70;;
30247;SDS011;17063;50.892;4.702;2023-12-28T05:54:07;12.73;;;2.13;;
30247;SDS011;17063;50.892;4.702;2023-12-28T05:56:35;7.07;;;2.27;;
30247;SDS011;17063;50.892;4.702;2023-12-28T05:59:02;8.50;;;2.33;;
30247;SDS011;17063;50.892;4.702;2023-12-28T06:01:29;8.53;;;1.80;;
30247;SDS011;17063;50.892;4.702;2023-12-28T06:03:56;12.50;;;2.10;;
30247;SDS011;17063;50.892;4.702;2023-12-28T06:06:23;10.93;;;1.73;;
30247;SDS011;17063;50.892;4.702;2023-12-28T06:08:50;9.27;;;1.80;;
30247;SDS011;17063;50.892;4.702;2023-12-28T06:11:17;9.20;;;1.63;;
30247;SDS011;17063;50.892;4.702;2023-12-28T06:13:44;10.77;;;2.10;;
30247;SDS011;17063;50.892;4.702;2023-12-28T06:16:11;10.17;;;2.00;;
30247;SDS011;17063;50.892;4.702;2023-12-28T06:18:38;8.00;;;1.80;;
30247;SDS011;17063;50.892;4.702;2023-12-28T06:21:05;15.73;;;2.50;;
30247;SDS011;17063;50.892;4.702;2023-12-28T06:23:34;11.07;;;2.60;;
30247;SDS011;17063;50.892;4.702;2023-12-28T06:26:05;11.30;;;2.17;;
30247;SDS011;17063;50.892;4.702;2023-12-28T06:28:35;7.20;;;1.93;;
30247;SDS011;17063;50.892;4.702;2023-12-28T06:31:01;9.03;;;1.90;;
30247;SDS011;17063;50.892;4.702;2023-12-28T06:33:31;5.10;;;1.90;;
30247;SDS011;17063;50.892;4.702;2023-12-28T06:36:04;9.47;;;1.97;;
30247;SDS011;17063;50.892;4.702;2023-12-28T06:38:31;6.00;;;1.60;;
30247;SDS011;17063;50.892;4.702;2023-12-28T06:41:00;12.77;;;2.03;;
30247;SDS011;17063;50.892;4.702;2023-12-28T06:43:27;12.23;;;2.00;;
30247;SDS011;17063;50.892;4.702;2023-12-28T06:45:54;9.20;;;1.93;;
30247;SDS011;17063;50.892;4.702;2023-12-28T06:48:21;13.97;;;1.90;;
30247;SDS011;17063;50.892;4.702;2023-12-28T06:50:48;10.83;;;1.90;;
30247;SDS011;17063;50.892;4.702;2023-12-28T06:53:14;5.70;;;1.93;;
30247;SDS011;17063;50.892;4.702;2023-12-28T06:55:41;12.23;;;2.20;;
30247;SDS011;17063;50.892;4.702;2023-12-28T06:58:11;14.67;;;2.00;;
30247;SDS011;17063;50.892;4.702;2023-12-28T07:00:39;10.90;;;1.83;;
30247;SDS011;17063;50.892;4.702;2023-12-28T07:03:07;15.20;;;2.70;;
30247;SDS011;17063;50.892;4.702;2023-12-28T07:05:34;14.50;;;2.37;;
30247;SDS011;17063;50.892;4.702;2023-12-28T07:08:02;12.03;;;2.27;;
30247;SDS011;17063;50.892;4.702;2023-12-28T07:10:28;14.73;;;2.53;;
30247;SDS011;17063;50.892;4.702;2023-12-28T07:12:55;10.33;;;2.10;;
30247;SDS011;17063;50.892;4.702;2023-12-28T07:15:23;10.80;;;1.93;;
30247;SDS011;17063;50.892;4.702;2023-12-28T07:17:49;10.10;;;1.80;;
30247;SDS011;17063;50.892;4.702;2023-12-28T07:20:16;9.93;;;2.30;;
30247;SDS011;17063;50.892;4.702;2023-12-28T07:22:43;10.37;;;2.00;;
30247;SDS011;17063;50.892;4.702;2023-12-28T07:25:10;12.27;;;2.67;;
30247;SDS011;17063;50.892;4.702;2023-12-28T07:27:37;15.23;;;2.40;;
30247;SDS011;17063;50.892;4.702;2023-12-28T07:30:04;16.73;;;2.40;;
30247;SDS011;17063;50.892;4.702;2023-12-28T07:32:31;14.43;;;2.57;;
30247;SDS011;17063;50.892;4.702;2023-12-28T07:34:58;8.73;;;1.70;;
30247;SDS011;17063;50.892;4.702;2023-12-28T07:37:25;11.53;;;2.43;;
30247;SDS011;17063;50.892;4.702;2023-12-28T07:39:52;11.67;;;2.10;;
30247;SDS011;17063;50.892;4.702;2023-12-28T07:42:19;9.00;;;1.80;;
30247;SDS011;17063;50.892;4.702;2023-12-28T07:44:46;16.27;;;1.93;;
30247;SDS011;17063;50.892;4.702;2023-12-28T07:47:13;19.77;;;2.77;;
30247;SDS011;17063;50.892;4.702;2023-12-28T07:49:40;10.63;;;2.20;;
30247;SDS011;17063;50.892;4.702;2023-12-28T07:52:07;13.33;;;2.57;;
30247;SDS011;17063;50.892;4.702;2023-12-28T07:54:34;13.10;;;2.40;;
30247;SDS011;17063;50.892;4.702;2023-12-28T07:57:01;9.03;;;1.63;;
30247;SDS011;17063;50.892;4.702;2023-12-28T07:59:28;11.77;;;2.37;;
30247;SDS011;17063;50.892;4.702;2023-12-28T08:01:55;9.20;;;1.70;;
30247;SDS011;17063;50.892;4.702;2023-12-28T08:04:23;6.70;;;2.17;;
30247;SDS011;17063;50.892;4.702;2023-12-28T08:06:50;13.03;;;2.00;;
30247;SDS011;17063;50.892;4.702;2023-12-28T08:09:17;15.60;;;2.43;;
30247;SDS011;17063;50.892;4.702;2023-12-28T08:11:43;11.57;;;2.03;;
30247;SDS011;17063;50.892;4.702;2023-12-28T08:14:10;12.33;;;1.80;;
30247;SDS011;17063;50.892;4.702;2023-12-28T08:16:37;12.60;;;2.07;;
30247;SDS011;17063;50.892;4.702;2023-12-28T08:19:04;9.50;;;2.40;;
30247;SDS011;17063;50.892;4.702;2023-12-28T08:21:33;10.37;;;2.07;;
30247;SDS011;17063;50.892;4.702;2023-12-28T08:24:00;9.17;;;2.03;;
30247;SDS011;17063;50.892;4.702;2023-12-28T08:26:27;9.83;;;1.87;;
30247;SDS011;17063;50.892;4.702;2023-12-28T08:28:54;13.93;;;1.83;;
30247;SDS011;17063;50.892;4.702;2023-12-28T08:31:20;17.00;;;2.13;;
30247;SDS011;17063;50.892;4.702;2023-12-28T08:33:48;9.63;;;2.13;;
30247;SDS011;17063;50.892;4.702;2023-12-28T08:36:15;10.00;;;2.03;;
30247;SDS011;17063;50.892;4.702;2023-12-28T08:38:44;14.70;;;2.37;;
30247;SDS011;17063;50.892;4.702;2023-12-28T08:41:20;11.60;;;2.47;;
30247;SDS011;17063;50.892;4.702;2023-12-28T08:43:47;9.13;;;2.10;;
30247;SDS011;17063;50.892;4.702;2023-12-28T08:46:14;11.27;;;2.73;;
30247;SDS011;17063;50.892;4.702;2023-12-28T08:48:42;7.70;;;1.70;;
30247;SDS011;17063;50.892;4.702;2023-12-28T08:51:09;14.43;;;2.40;;
30247;SDS011;17063;50.892;4.702;2023-12-28T08:53:36;17.50;;;2.53;;
30247;SDS011;17063;50.892;4.702;2023-12-28T08:56:17;10.77;;;2.10;;
30247;SDS011;17063;50.892;4.702;2023-12-28T08:58:46;10.13;;;2.03;;
30247;SDS011;17063;50.892;4.702;2023-12-28T09:01:23;9.63;;;1.80;;
30247;SDS011;17063;50.892;4.702;2023-12-28T09:03:52;7.37;;;1.73;;
30247;SDS011;17063;50.892;4.702;2023-12-28T09:06:20;14.40;;;1.90;;
30247;SDS011;17063;50.892;4.702;2023-12-28T09:08:49;11.43;;;1.70;;
30247;SDS011;17063;50.892;4.702;2023-12-28T09:11:19;10.50;;;2.10;;
30247;SDS011;17063;50.892;4.702;2023-12-28T09:13:46;9.90;;;2.17;;
30247;SDS011;17063;50.892;4.702;2023-12-28T09:16:14;12.00;;;2.10;;
30247;SDS011;17063;50.892;4.702;2023-12-28T09:18:41;10.27;;;2.33;;
30247;SDS011;17063;50.892;4.702;2023-12-28T09:21:09;8.33;;;2.10;;
30247;SDS011;17063;50.892;4.702;2023-12-28T09:23:36;14.27;;;2.47;;
30247;SDS011;17063;50.892;4.702;2023-12-28T09:26:04;8.83;;;2.07;;
30247;SDS011;17063;50.892;4.702;2023-12-28T09:28:32;14.77;;;2.50;;
30247;SDS011;17063;50.892;4.702;2023-12-28T09:31:02;16.47;;;2.70;;
30247;SDS011;17063;50.892;4.702;2023-12-28T09:33:31;14.60;;;2.73;;
30247;SDS011;17063;50.892;4.702;2023-12-28T09:35:58;11.57;;;2.40;;
30247;SDS011;17063;50.892;4.702;2023-12-28T09:38:25;8.70;;;2.47;;
30247;SDS011;17063;50.892;4.702;2023-12-28T09:40:53;15.57;;;2.43;;
30247;SDS011;17063;50.892;4.702;2023-12-28T09:43:25;10.70;;;2.17;;
30247;SDS011;17063;50.892;4.702;2023-12-28T09:45:53;20.93;;;2.53;;
30247;SDS011;17063;50.892;4.702;2023-12-28T09:48:21;10.77;;;1.93;;
30247;SDS011;17063;50.892;4.702;2023-12-28T09:50:49;15.37;;;2.77;;
30247;SDS011;17063;50.892;4.702;2023-12-28T09:53:17;14.70;;;2.07;;
30247;SDS011;17063;50.892;4.702;2023-12-28T09:55:44;13.30;;;2.37;;
30247;SDS011;17063;50.892;4.702;2023-12-28T09:58:12;15.27;;;1.97;;
30247;SDS011;17063;50.892;4.702;2023-12-28T10:00:43;15.93;;;2.10;;
30247;SDS011;17063;50.892;4.702;2023-12-28T10:03:13;12.23;;;3.40;;
30247;SDS011;17063;50.892;4.702;2023-12-28T10:05:41;11.63;;;3.00;;
30247;SDS011;17063;50.892;4.702;2023-12-28T10:08:10;12.60;;;2.13;;
30247;SDS011;17063;50.892;4.702;2023-12-28T10:10:39;12.20;;;2.00;;
30247;SDS011;17063;50.892;4.702;2023-12-28T10:13:10;11.13;;;1.87;;
30247;SDS011;17063;50.892;4.702;2023-12-28T10:15:38;14.43;;;2.10;;
30247;SDS011;17063;50.892;4.702;2023-12-28T10:18:05;8.37;;;1.93;;
30247;SDS011;17063;50.892;4.702;2023-12-28T10:20:33;8.37;;;1.60;;
30247;SDS011;17063;50.892;4.702;2023-12-28T10:23:00;14.50;;;2.23;;
30247;SDS011;17063;50.892;4.702;2023-12-28T10:25:28;19.77;;;2.57;;
30247;SDS011;17063;50.892;4.702;2023-12-28T10:27:56;12.40;;;2.23;;
30247;SDS011;17063;50.892;4.702;2023-12-28T10:30:23;9.40;;;2.90;;
30247;SDS011;17063;50.892;4.702;2023-12-28T10:32:51;13.90;;;2.63;;
30247;SDS011;17063;50.892;4.702;2023-12-28T10:35:19;14.30;;;2.83;;
30247;SDS011;17063;50.892;4.702;2023-12-28T10:37:46;15.53;;;2.50;;
30247;SDS011;17063;50.892;4.702;2023-12-28T10:40:14;14.13;;;2.37;;
30247;SDS011;17063;50.892;4.702;2023-12-28T10:42:51;19.40;;;2.57;;
30247;SDS011;17063;50.892;4.702;2023-12-28T10:45:18;14.50;;;2.10;;
30247;SDS011;17063;50.892;4.702;2023-12-28T10:47:54;10.73;;;2.33;;
30247;SDS011;17063;50.892;4.702;2023-12-28T10:50:43;18.20;;;2.60;;
30247;SDS011;17063;50.892;4.702;2023-12-28T11:01:51;13.20;;;2.13;;
30247;SDS011;17063;50.892;4.702;2023-12-28T11:07:03;14.33;;;2.30;;
30247;SDS011;17063;50.892;4.702;2023-12-28T11:09:32;13.83;;;2.40;;
30247;SDS011;17063;50.892;4.702;2023-12-28T11:11:59;14.80;;;2.40;;
30247;SDS011;17063;50.892;4.702;2023-12-28T11:14:27;18.00;;;2.53;;
30247;SDS011;17063;50.892;4.702;2023-12-28T11:16:55;18.63;;;3.00;;
30247;SDS011;17063;50.892;4.702;2023-12-28T11:19:22;14.60;;;2.13;;
30247;SDS011;17063;50.892;4.702;2023-12-28T11:21:49;17.13;;;2.60;;
30247;SDS011;17063;50.892;4.702;2023-12-28T11:24:17;13.53;;;2.40;;
30247;SDS011;17063;50.892;4.702;2023-12-28T11:26:44;19.07;;;2.70;;
30247;SDS011;17063;50.892;4.702;2023-12-28T11:29:11;16.30;;;2.70;;
30247;SDS011;17063;50.892;4.702;2023-12-28T11:31:38;15.60;;;2.17;;
30247;SDS011;17063;50.892;4.702;2023-12-28T11:34:05;19.20;;;2.50;;
30247;SDS011;17063;50.892;4.702;2023-12-28T11:36:43;13.80;;;2.50;;
30247;SDS011;17063;50.892;4.702;2023-12-28T11:39:14;15.70;;;2.43;;
30247;SDS011;17063;50.892;4.702;2023-12-28T11:41:58;11.73;;;2.40;;
30247;SDS011;17063;50.892;4.702;2023-12-28T11:44:42;17.07;;;2.77;;
30247;SDS011;17063;50.892;4.702;2023-12-28T11:47:22;14.70;;;2.30;;
30247;SDS011;17063;50.892;4.702;2023-12-28T11:49:53;14.97;;;2.73;;
30247;SDS011;17063;50.892;4.702;2023-12-28T11:52:24;15.03;;;2.67;;
30247;SDS011;17063;50.892;4.702;2023-12-28T11:54:53;15.23;;;2.30;;
30247;SDS011;17063;50.892;4.702;2023-12-28T11:57:21;18.70;;;2.87;;
30247;SDS011;17063;50.892;4.702;2023-12-28T11:59:53;12.63;;;2.53;;
30247;SDS011;17063;50.892;4.702;2023-12-28T12:02:21;20.80;;;2.50;;
30247;SDS011;17063;50.892;4.702;2023-12-28T12:04:48;19.57;;;3.30;;
30247;SDS011;17063;50.892;4.702;2023-12-28T12:07:19;21.27;;;2.67;;
30247;SDS011;17063;50.892;4.702;2023-12-28T12:09:46;13.13;;;2.30;;
30247;SDS011;17063;50.892;4.702;2023-12-28T12:12:15;14.83;;;2.87;;
30247;SDS011;17063;50.892;4.702;2023-12-28T12:14:43;19.03;;;2.83;;
30247;SDS011;17063;50.892;4.702;2023-12-28T12:17:10;21.80;;;2.53;;
30247;SDS011;17063;50.892;4.702;2023-12-28T12:19:36;16.53;;;2.60;;
30247;SDS011;17063;50.892;4.702;2023-12-28T12:22:04;14.57;;;2.83;;
30247;SDS011;17063;50.892;4.702;2023-12-28T12:24:31;22.60;;;2.97;;
30247;SDS011;17063;50.892;4.702;2023-12-28T12:26:59;13.87;;;3.40;;
30247;SDS011;17063;50.892;4.702;2023-12-28T12:29:29;11.07;;;2.47;;
30247;SDS011;17063;50.892;4.702;2023-12-28T12:31:56;18.20;;;2.73;;
30247;SDS011;17063;50.892;4.702;2023-12-28T12:34:23;14.83;;;2.80;;
30247;SDS011;17063;50.892;4.702;2023-12-28T12:36:51;13.63;;;1.93;;
30247;SDS011;17063;50.892;4.702;2023-12-28T12:39:24;13.83;;;2.30;;
30247;SDS011;17063;50.892;4.702;2023-12-28T12:41:51;15.20;;;2.70;;
30247;SDS011;17063;50.892;4.702;2023-12-28T12:44:21;17.70;;;2.10;;
30247;SDS011;17063;50.892;4.702;2023-12-28T12:46:55;13.57;;;1.93;;
30247;SDS011;17063;50.892;4.702;2023-12-28T12:49:23;18.60;;;2.23;;
30247;SDS011;17063;50.892;4.702;2023-12-28T12:51:53;19.10;;;2.77;;
30247;SDS011;17063;50.892;4.702;2023-12-28T12:54:20;18.77;;;3.20;;
30247;SDS011;17063;50.892;4.702;2023-12-28T12:56:47;13.20;;;2.50;;
30247;SDS011;17063;50.892;4.702;2023-12-28T12:59:14;17.67;;;2.47;;
30247;SDS011;17063;50.892;4.702;2023-12-28T13:01:44;15.43;;;2.77;;
30247;SDS011;17063;50.892;4.702;2023-12-28T13:04:11;10.03;;;2.00;;
30247;SDS011;17063;50.892;4.702;2023-12-28T13:06:39;16.47;;;2.37;;
30247;SDS011;17063;50.892;4.702;2023-12-28T13:09:05;17.57;;;2.50;;
30247;SDS011;17063;50.892;4.702;2023-12-28T13:11:34;9.67;;;2.27;;
30247;SDS011;17063;50.892;4.702;2023-12-28T13:14:01;18.90;;;2.90;;
30247;SDS011;17063;50.892;4.702;2023-12-28T13:16:28;18.97;;;2.60;;
30247;SDS011;17063;50.892;4.702;2023-12-28T13:18:55;11.00;;;2.33;;
30247;SDS011;17063;50.892;4.702;2023-12-28T13:21:22;18.53;;;2.47;;
30247;SDS011;17063;50.892;4.702;2023-12-28T13:23:49;9.97;;;1.83;;
30247;SDS011;17063;50.892;4.702;2023-12-28T13:26:16;13.60;;;2.40;;
30247;SDS011;17063;50.892;4.702;2023-12-28T13:28:43;11.60;;;2.30;;
30247;SDS011;17063;50.892;4.702;2023-12-28T13:31:10;20.03;;;2.40;;
30247;SDS011;17063;50.892;4.702;2023-12-28T13:33:37;18.03;;;2.10;;
30247;SDS011;17063;50.892;4.702;2023-12-28T13:36:04;6.50;;;1.87;;
30247;SDS011;17063;50.892;4.702;2023-12-28T13:38:30;16.63;;;2.97;;
30247;SDS011;17063;50.892;4.702;2023-12-28T13:40:57;17.93;;;2.40;;
30247;SDS011;17063;50.892;4.702;2023-12-28T13:43:24;15.63;;;2.70;;
30247;SDS011;17063;50.892;4.702;2023-12-28T13:45:51;20.73;;;2.23;;
30247;SDS011;17063;50.892;4.702;2023-12-28T13:48:18;18.63;;;2.33;;
30247;SDS011;17063;50.892;4.702;2023-12-28T13:50:45;13.00;;;1.90;;
30247;SDS011;17063;50.892;4.702;2023-12-28T13:53:12;13.40;;;2.37;;
30247;SDS011;17063;50.892;4.702;2023-12-28T13:55:39;12.67;;;2.50;;
30247;SDS011;17063;50.892;4.702;2023-12-28T13:58:06;8.60;;;1.97;;
30247;SDS011;17063;50.892;4.702;2023-12-28T14:00:34;16.50;;;2.33;;
30247;SDS011;17063;50.892;4.702;2023-12-28T14:03:01;10.10;;;2.07;;
30247;SDS011;17063;50.892;4.702;2023-12-28T14:05:29;9.23;;;1.73;;
30247;SDS011;17063;50.892;4.702;2023-12-28T14:08:01;13.07;;;1.80;;
30247;SDS011;17063;50.892;4.702;2023-12-28T14:10:30;22.43;;;2.73;;
30247;SDS011;17063;50.892;4.702;2023-12-28T14:12:56;10.37;;;1.83;;
30247;SDS011;17063;50.892;4.702;2023-12-28T14:15:24;15.17;;;3.13;;
30247;SDS011;17063;50.892;4.702;2023-12-28T14:17:51;8.87;;;1.83;;
30247;SDS011;17063;50.892;4.702;2023-12-28T14:20:17;7.93;;;2.53;;
30247;SDS011;17063;50.892;4.702;2023-12-28T14:22:44;14.20;;;2.17;;
30247;SDS011;17063;50.892;4.702;2023-12-28T14:25:13;11.63;;;1.90;;
30247;SDS011;17063;50.892;4.702;2023-12-28T14:27:40;7.70;;;2.10;;
30247;SDS011;17063;50.892;4.702;2023-12-28T14:30:07;10.43;;;1.80;;
30247;SDS011;17063;50.892;4.702;2023-12-28T14:32:37;16.10;;;2.40;;
30247;SDS011;17063;50.892;4.702;2023-12-28T14:35:04;15.50;;;1.87;;
30247;SDS011;17063;50.892;4.702;2023-12-28T14:37:31;8.37;;;2.30;;
30247;SDS011;17063;50.892;4.702;2023-12-28T14:39:58;9.93;;;2.47;;
30247;SDS011;17063;50.892;4.702;2023-12-28T14:42:26;12.43;;;2.50;;
30247;SDS011;17063;50.892;4.702;2023-12-28T14:44:53;11.70;;;1.70;;
30247;SDS011;17063;50.892;4.702;2023-12-28T14:47:19;9.43;;;1.70;;
30247;SDS011;17063;50.892;4.702;2023-12-28T14:49:46;11.17;;;1.97;;
30247;SDS011;17063;50.892;4.702;2023-12-28T14:52:13;12.67;;;2.53;;
30247;SDS011;17063;50.892;4.702;2023-12-28T14:54:40;8.60;;;1.83;;
30247;SDS011;17063;50.892;4.702;2023-12-28T14:57:07;10.63;;;1.93;;
30247;SDS011;17063;50.892;4.702;2023-12-28T14:59:35;9.67;;;1.93;;